Terminal Aerodrome Forecast
Issued by NWS

Home | Current Version | Previous Version | Text Only | Print | Product List | Glossary Off
Versions: 1 2 3 4 5 6 7 8 9 10 11 12 13 14 15 16 17 18 19 20

000
FTUS43 KABR 252010 AAA
TAFATY
TAF AMD
KATY 252010Z 2520/2618 03010KT P6SM BKN013 OVC018
     FM260100 35006KT P6SM OVC030
     FM260800 36004KT 3SM BR OVC015
      TEMPO 2608/2612 1/2SM FG
     FM261200 36006KT 5SM BR OVC020=

USA.gov is the U.S. government's official web portal to all federal, state and local government web resources and services.